Terminal Aerodrome Forecast
Issued by NWS

Home | Current Version | Previous Version | Text Only | Print | Product List | Glossary On
Versions: 1 2 3 4 5 6 7 8 9 10 11 12 13
000
FTUS42 KTBW 172106 AAA
TAFPGD
TAF AMD
KPGD 172106Z 1721/1818 30007KT P6SM VCTS SCT035CB BKN060
      TEMPO 1721/1722 VRB15G25KT 2SM TSRA BKN030CB
     FM180200 VRB03KT P6SM FEW030 BKN250
     FM181500 18005KT P6SM FEW025 SCT250=

USA.gov is the U.S. government's official web portal to all federal, state and local government web resources and services.